sensor_id;sensor_type;location;lat;lon;timestamp;pressure;altitude;pressure_sealevel;temperature;humidity
83363;BME280;73275;50.882;5.984;2023-12-20T00:01:54;100448.53;;;7.09;100.00
83363;BME280;73275;50.882;5.984;2023-12-20T00:08:57;100459.38;;;7.04;100.00
83363;BME280;73275;50.882;5.984;2023-12-20T00:19:09;100471.38;;;6.98;99.71
83363;BME280;73275;50.882;5.984;2023-12-20T00:35:46;100498.28;;;6.54;94.00
83363;BME280;73275;50.882;5.984;2023-12-20T00:38:41;100495.38;;;6.43;94.40
83363;BME280;73275;50.882;5.984;2023-12-20T00:41:33;100494.56;;;6.27;94.41
83363;BME280;73275;50.882;5.984;2023-12-20T00:44:24;100512.03;;;6.16;93.44
83363;BME280;73275;50.882;5.984;2023-12-20T00:46:53;100509.78;;;6.03;92.29
83363;BME280;73275;50.882;5.984;2023-12-20T00:49:21;100520.59;;;5.98;91.89
83363;BME280;73275;50.882;5.984;2023-12-20T00:51:56;100525.56;;;5.87;92.37
83363;BME280;73275;50.882;5.984;2023-12-20T00:54:21;100525.38;;;5.80;93.12
83363;BME280;73275;50.882;5.984;2023-12-20T00:56:47;100531.19;;;5.74;92.79
83363;BME280;73275;50.882;5.984;2023-12-20T00:59:12;100531.00;;;5.67;92.34
83363;BME280;73275;50.882;5.984;2023-12-20T01:01:37;100545.00;;;5.55;93.10
83363;BME280;73275;50.882;5.984;2023-12-20T01:04:03;100549.88;;;5.53;93.73
83363;BME280;73275;50.882;5.984;2023-12-20T01:06:29;100546.00;;;5.51;93.30
83363;BME280;73275;50.882;5.984;2023-12-20T01:08:57;100546.34;;;5.49;93.92
83363;BME280;73275;50.882;5.984;2023-12-20T01:11:22;100530.38;;;5.46;93.32
83363;BME280;73275;50.882;5.984;2023-12-20T01:13:50;100527.84;;;5.49;93.29
83363;BME280;73275;50.882;5.984;2023-12-20T01:16:18;100535.13;;;5.52;93.71
83363;BME280;73275;50.882;5.984;2023-12-20T01:18:43;100543.03;;;5.52;93.66
83363;BME280;73275;50.882;5.984;2023-12-20T01:21:19;100534.34;;;5.52;93.75
83363;BME280;73275;50.882;5.984;2023-12-20T01:23:44;100542.69;;;5.54;94.91
83363;BME280;73275;50.882;5.984;2023-12-20T01:26:10;100539.50;;;5.60;93.75
83363;BME280;73275;50.882;5.984;2023-12-20T01:28:35;100512.19;;;5.56;93.76
83363;BME280;73275;50.882;5.984;2023-12-20T01:31:00;100513.94;;;5.64;93.52
83363;BME280;73275;50.882;5.984;2023-12-20T01:33:26;100524.31;;;5.57;93.36
83363;BME280;73275;50.882;5.984;2023-12-20T01:35:51;100517.81;;;5.55;93.74
83363;BME280;73275;50.882;5.984;2023-12-20T01:38:19;100525.19;;;5.49;94.51
83363;BME280;73275;50.882;5.984;2023-12-20T01:40:47;100533.44;;;5.48;94.54
83363;BME280;73275;50.882;5.984;2023-12-20T01:43:13;100528.16;;;5.48;95.42
83363;BME280;73275;50.882;5.984;2023-12-20T01:45:41;100536.19;;;5.51;95.28
83363;BME280;73275;50.882;5.984;2023-12-20T01:48:08;100535.97;;;5.56;94.81
83363;BME280;73275;50.882;5.984;2023-12-20T01:50:36;100536.66;;;5.53;95.42
83363;BME280;73275;50.882;5.984;2023-12-20T01:53:03;100544.47;;;5.50;95.45
83363;BME280;73275;50.882;5.984;2023-12-20T01:55:32;100543.50;;;5.42;95.61
83363;BME280;73275;50.882;5.984;2023-12-20T01:57:59;100546.78;;;5.39;95.65
83363;BME280;73275;50.882;5.984;2023-12-20T02:00:26;100544.13;;;5.39;95.49
83363;BME280;73275;50.882;5.984;2023-12-20T02:02:53;100551.84;;;5.44;95.48
83363;BME280;73275;50.882;5.984;2023-12-20T02:05:21;100551.53;;;5.46;95.48
83363;BME280;73275;50.882;5.984;2023-12-20T02:07:48;100557.03;;;5.41;95.15
83363;BME280;73275;50.882;5.984;2023-12-20T02:10:17;100557.34;;;5.39;95.59
83363;BME280;73275;50.882;5.984;2023-12-20T02:12:42;100555.16;;;5.41;94.74
83363;BME280;73275;50.882;5.984;2023-12-20T02:15:08;100545.25;;;5.38;95.34
83363;BME280;73275;50.882;5.984;2023-12-20T02:17:33;100546.78;;;5.39;94.95
83363;BME280;73275;50.882;5.984;2023-12-20T02:19:59;100549.75;;;5.38;94.47
83363;BME280;73275;50.882;5.984;2023-12-20T02:22:24;100544.69;;;5.33;94.90
83363;BME280;73275;50.882;5.984;2023-12-20T02:24:50;100550.66;;;5.30;94.98
83363;BME280;73275;50.882;5.984;2023-12-20T02:27:17;100565.72;;;5.29;94.78
83363;BME280;73275;50.882;5.984;2023-12-20T02:29:43;100564.59;;;5.30;95.30
83363;BME280;73275;50.882;5.984;2023-12-20T02:32:09;100545.59;;;5.25;94.48
83363;BME280;73275;50.882;5.984;2023-12-20T02:34:34;100556.56;;;5.27;94.50
83363;BME280;73275;50.882;5.984;2023-12-20T02:36:59;100567.16;;;5.27;94.83
83363;BME280;73275;50.882;5.984;2023-12-20T02:39:25;100559.56;;;5.25;95.19
83363;BME280;73275;50.882;5.984;2023-12-20T02:41:50;100563.75;;;5.26;95.12
83363;BME280;73275;50.882;5.984;2023-12-20T02:44:16;100557.78;;;5.29;94.54
83363;BME280;73275;50.882;5.984;2023-12-20T02:46:41;100553.06;;;5.23;94.86
83363;BME280;73275;50.882;5.984;2023-12-20T02:49:07;100550.31;;;5.19;95.01
83363;BME280;73275;50.882;5.984;2023-12-20T02:51:32;100549.22;;;5.20;94.93
83363;BME280;73275;50.882;5.984;2023-12-20T02:53:58;100552.94;;;5.19;94.81
83363;BME280;73275;50.882;5.984;2023-12-20T02:56:23;100560.88;;;5.19;94.85
83363;BME280;73275;50.882;5.984;2023-12-20T02:58:49;100559.31;;;5.18;95.24
83363;BME280;73275;50.882;5.984;2023-12-20T03:01:14;100567.34;;;5.22;94.87
83363;BME280;73275;50.882;5.984;2023-12-20T03:03:39;100574.53;;;5.21;95.36
83363;BME280;73275;50.882;5.984;2023-12-20T03:06:05;100568.94;;;5.23;95.48
83363;BME280;73275;50.882;5.984;2023-12-20T03:08:31;100562.63;;;5.27;94.50
83363;BME280;73275;50.882;5.984;2023-12-20T03:10:56;100562.63;;;5.27;94.62
83363;BME280;73275;50.882;5.984;2023-12-20T03:13:24;100557.78;;;5.17;94.84
83363;BME280;73275;50.882;5.984;2023-12-20T03:15:50;100556.47;;;5.23;94.02
83363;BME280;73275;50.882;5.984;2023-12-20T03:18:15;100558.13;;;5.16;94.50
83363;BME280;73275;50.882;5.984;2023-12-20T03:20:41;100560.13;;;5.07;94.47
83363;BME280;73275;50.882;5.984;2023-12-20T03:23:07;100567.34;;;5.10;94.89
83363;BME280;73275;50.882;5.984;2023-12-20T03:25:32;100570.31;;;5.08;94.59
83363;BME280;73275;50.882;5.984;2023-12-20T03:27:58;100566.94;;;5.08;94.18
83363;BME280;73275;50.882;5.984;2023-12-20T03:30:23;100558.00;;;5.12;94.64
83363;BME280;73275;50.882;5.984;2023-12-20T03:32:48;100555.16;;;5.05;95.04
83363;BME280;73275;50.882;5.984;2023-12-20T03:35:14;100548.78;;;5.06;94.28
83363;BME280;73275;50.882;5.984;2023-12-20T03:37:39;100557.78;;;5.05;94.89
83363;BME280;73275;50.882;5.984;2023-12-20T03:40:05;100554.69;;;5.03;94.62
83363;BME280;73275;50.882;5.984;2023-12-20T03:42:30;100547.56;;;5.04;94.54
83363;BME280;73275;50.882;5.984;2023-12-20T03:44:56;100543.28;;;4.99;94.80
83363;BME280;73275;50.882;5.984;2023-12-20T03:47:21;100544.28;;;5.07;94.37
83363;BME280;73275;50.882;5.984;2023-12-20T03:49:47;100546.03;;;5.03;94.46
83363;BME280;73275;50.882;5.984;2023-12-20T03:52:12;100545.03;;;4.95;94.84
83363;BME280;73275;50.882;5.984;2023-12-20T03:54:38;100550.19;;;4.92;94.57
83363;BME280;73275;50.882;5.984;2023-12-20T03:57:04;100550.31;;;4.95;94.65
83363;BME280;73275;50.882;5.984;2023-12-20T03:59:30;100550.19;;;4.92;95.15
83363;BME280;73275;50.882;5.984;2023-12-20T04:02:00;100550.06;;;4.88;95.16
83363;BME280;73275;50.882;5.984;2023-12-20T04:04:26;100540.59;;;4.87;95.72
83363;BME280;73275;50.882;5.984;2023-12-20T04:06:51;100536.19;;;4.79;95.06
83363;BME280;73275;50.882;5.984;2023-12-20T04:09:16;100541.47;;;4.79;95.49
83363;BME280;73275;50.882;5.984;2023-12-20T04:11:42;100543.22;;;4.75;95.59
83363;BME280;73275;50.882;5.984;2023-12-20T04:14:07;100546.19;;;4.74;95.38
83363;BME280;73275;50.882;5.984;2023-12-20T04:16:33;100539.69;;;4.71;95.42
83363;BME280;73275;50.882;5.984;2023-12-20T04:18:58;100550.72;;;4.85;95.35
83363;BME280;73275;50.882;5.984;2023-12-20T04:21:24;100548.97;;;4.89;95.20
83363;BME280;73275;50.882;5.984;2023-12-20T04:23:49;100541.50;;;4.91;94.86
83363;BME280;73275;50.882;5.984;2023-12-20T04:26:15;100543.22;;;4.87;95.21
83363;BME280;73275;50.882;5.984;2023-12-20T04:28:40;100544.91;;;4.92;94.91
83363;BME280;73275;50.882;5.984;2023-12-20T04:31:05;100552.94;;;4.95;94.03
83363;BME280;73275;50.882;5.984;2023-12-20T04:33:31;100538.75;;;4.88;94.18
83363;BME280;73275;50.882;5.984;2023-12-20T04:35:56;100554.91;;;4.98;94.61
83363;BME280;73275;50.882;5.984;2023-12-20T04:38:22;100556.69;;;4.94;94.98
83363;BME280;73275;50.882;5.984;2023-12-20T04:40:48;100571.31;;;4.92;95.05
83363;BME280;73275;50.882;5.984;2023-12-20T04:43:13;100572.63;;;4.98;95.10
83363;BME280;73275;50.882;5.984;2023-12-20T04:45:41;100573.19;;;5.03;94.43
83363;BME280;73275;50.882;5.984;2023-12-20T04:48:07;100566.81;;;5.04;94.94
83363;BME280;73275;50.882;5.984;2023-12-20T04:50:32;100563.94;;;4.97;95.10
83363;BME280;73275;50.882;5.984;2023-12-20T04:52:58;100570.75;;;4.98;95.25
83363;BME280;73275;50.882;5.984;2023-12-20T04:55:23;100562.63;;;5.03;94.87
83363;BME280;73275;50.882;5.984;2023-12-20T04:57:49;100558.69;;;5.09;94.73
83363;BME280;73275;50.882;5.984;2023-12-20T05:00:15;100563.19;;;5.09;94.07
83363;BME280;73275;50.882;5.984;2023-12-20T05:02:40;100538.84;;;5.03;94.57
83363;BME280;73275;50.882;5.984;2023-12-20T05:05:06;100567.34;;;5.10;93.69
83363;BME280;73275;50.882;5.984;2023-12-20T05:07:31;100559.44;;;5.10;93.32
83363;BME280;73275;50.882;5.984;2023-12-20T05:09:57;100556.03;;;5.09;93.56
83363;BME280;73275;50.882;5.984;2023-12-20T05:12:23;100555.47;;;5.04;93.83
83363;BME280;73275;50.882;5.984;2023-12-20T05:14:48;100556.03;;;5.09;94.17
83363;BME280;73275;50.882;5.984;2023-12-20T05:17:14;100562.53;;;5.12;93.81
83363;BME280;73275;50.882;5.984;2023-12-20T05:19:39;100562.19;;;5.13;94.11
83363;BME280;73275;50.882;5.984;2023-12-20T05:22:04;100556.25;;;5.16;93.40
83363;BME280;73275;50.882;5.984;2023-12-20T05:24:30;100560.75;;;5.16;93.66
83363;BME280;73275;50.882;5.984;2023-12-20T05:26:55;100548.66;;;5.15;93.68
83363;BME280;73275;50.882;5.984;2023-12-20T05:29:21;100544.91;;;5.16;93.03
83363;BME280;73275;50.882;5.984;2023-12-20T05:31:46;100548.34;;;5.16;93.09
83363;BME280;73275;50.882;5.984;2023-12-20T05:34:11;100544.69;;;5.21;92.81
83363;BME280;73275;50.882;5.984;2023-12-20T05:36:37;100550.66;;;5.18;93.10
83363;BME280;73275;50.882;5.984;2023-12-20T05:39:04;100547.88;;;5.14;92.86
83363;BME280;73275;50.882;5.984;2023-12-20T05:41:32;100543.94;;;5.20;92.42
83363;BME280;73275;50.882;5.984;2023-12-20T05:43:58;100551.50;;;5.22;92.29
83363;BME280;73275;50.882;5.984;2023-12-20T05:46:24;100548.34;;;5.16;92.15
83363;BME280;73275;50.882;5.984;2023-12-20T05:48:49;100546.81;;;5.15;92.42
83363;BME280;73275;50.882;5.984;2023-12-20T05:51:15;100546.91;;;5.19;92.47
83363;BME280;73275;50.882;5.984;2023-12-20T05:53:40;100540.31;;;5.25;91.76
83363;BME280;73275;50.882;5.984;2023-12-20T05:56:06;100550.75;;;5.21;92.15
83363;BME280;73275;50.882;5.984;2023-12-20T05:58:32;100550.09;;;5.12;92.42
83363;BME280;73275;50.882;5.984;2023-12-20T06:00:58;100543.06;;;5.16;91.71
83363;BME280;73275;50.882;5.984;2023-12-20T06:03:23;100545.59;;;5.13;91.94
83363;BME280;73275;50.882;5.984;2023-12-20T06:05:49;100551.41;;;5.18;91.74
83363;BME280;73275;50.882;5.984;2023-12-20T06:08:14;100548.78;;;5.06;92.34
83363;BME280;73275;50.882;5.984;2023-12-20T06:10:40;100561.09;;;5.14;91.85
83363;BME280;73275;50.882;5.984;2023-12-20T06:13:05;100559.00;;;5.08;91.79
83363;BME280;73275;50.882;5.984;2023-12-20T06:15:32;100559.97;;;5.03;91.65
83363;BME280;73275;50.882;5.984;2023-12-20T06:17:57;100558.22;;;5.07;92.00
83363;BME280;73275;50.882;5.984;2023-12-20T06:20:23;100576.59;;;5.04;91.98
83363;BME280;73275;50.882;5.984;2023-12-20T06:22:48;100579.88;;;5.01;92.08
83363;BME280;73275;50.882;5.984;2023-12-20T06:25:14;100569.00;;;5.02;91.77
83363;BME280;73275;50.882;5.984;2023-12-20T06:27:39;100572.09;;;5.04;91.49
83363;BME280;73275;50.882;5.984;2023-12-20T06:30:06;100574.97;;;5.11;91.02
83363;BME280;73275;50.882;5.984;2023-12-20T06:32:32;100576.94;;;5.14;90.75
83363;BME280;73275;50.882;5.984;2023-12-20T06:34:59;100573.97;;;5.16;90.57
83363;BME280;73275;50.882;5.984;2023-12-20T06:37:24;100574.97;;;5.11;91.40
83363;BME280;73275;50.882;5.984;2023-12-20T06:39:50;100576.38;;;5.09;92.04
83363;BME280;73275;50.882;5.984;2023-12-20T06:42:15;100578.81;;;5.14;91.42
83363;BME280;73275;50.882;5.984;2023-12-20T06:44:41;100585.19;;;5.13;91.40
83363;BME280;73275;50.882;5.984;2023-12-20T06:47:06;100577.16;;;5.09;92.31
83363;BME280;73275;50.882;5.984;2023-12-20T06:49:32;100586.06;;;5.05;91.87
83363;BME280;73275;50.882;5.984;2023-12-20T06:51:59;100594.31;;;5.03;91.16
83363;BME280;73275;50.882;5.984;2023-12-20T06:54:25;100578.91;;;5.05;91.49
83363;BME280;73275;50.882;5.984;2023-12-20T06:56:50;100596.19;;;5.03;91.62
83363;BME280;73275;50.882;5.984;2023-12-20T06:59:16;100582.97;;;5.03;91.14
83363;BME280;73275;50.882;5.984;2023-12-20T07:01:41;100589.22;;;4.98;91.75
83363;BME280;73275;50.882;5.984;2023-12-20T07:04:06;100569.78;;;5.03;91.95
83363;BME280;73275;50.882;5.984;2023-12-20T07:06:32;100559.66;;;4.93;91.38
83363;BME280;73275;50.882;5.984;2023-12-20T07:08:57;100585.72;;;4.94;92.21
83363;BME280;73275;50.882;5.984;2023-12-20T07:11:22;100597.38;;;4.93;92.21
83363;BME280;73275;50.882;5.984;2023-12-20T07:13:48;100586.25;;;4.88;92.02
83363;BME280;73275;50.882;5.984;2023-12-20T07:16:14;100575.47;;;4.81;91.91
83363;BME280;73275;50.882;5.984;2023-12-20T07:18:40;100559.25;;;4.70;92.46
83363;BME280;73275;50.882;5.984;2023-12-20T07:21:05;100576.19;;;4.69;93.09
83363;BME280;73275;50.882;5.984;2023-12-20T07:23:33;100576.97;;;4.70;92.85
83363;BME280;73275;50.882;5.984;2023-12-20T07:25:58;100571.13;;;4.64;93.43
83363;BME280;73275;50.882;5.984;2023-12-20T07:28:24;100568.50;;;4.64;92.99
83363;BME280;73275;50.882;5.984;2023-12-20T07:30:50;100570.56;;;4.59;93.16
83363;BME280;73275;50.882;5.984;2023-12-20T07:33:15;100572.00;;;4.56;93.28
83363;BME280;73275;50.882;5.984;2023-12-20T07:35:41;100581.88;;;4.59;93.21
83363;BME280;73275;50.882;5.984;2023-12-20T07:38:06;100584.22;;;4.61;93.10
83363;BME280;73275;50.882;5.984;2023-12-20T07:40:32;100572.13;;;4.60;93.15
83363;BME280;73275;50.882;5.984;2023-12-20T07:42:57;100563.88;;;4.61;92.85
83363;BME280;73275;50.882;5.984;2023-12-20T07:45:23;100584.44;;;4.68;92.78
83363;BME280;73275;50.882;5.984;2023-12-20T07:47:49;100577.63;;;4.67;93.02
83363;BME280;73275;50.882;5.984;2023-12-20T07:50:15;100568.94;;;4.66;92.46
83363;BME280;73275;50.882;5.984;2023-12-20T07:52:40;100571.13;;;4.64;92.74
83363;BME280;73275;50.882;5.984;2023-12-20T07:55:06;100577.63;;;4.67;92.66
83363;BME280;73275;50.882;5.984;2023-12-20T07:57:32;100559.94;;;4.67;92.89
83363;BME280;73275;50.882;5.984;2023-12-20T07:59:57;100576.63;;;4.71;92.13
83363;BME280;73275;50.882;5.984;2023-12-20T08:02:23;100576.91;;;4.78;91.90
83363;BME280;73275;50.882;5.984;2023-12-20T08:04:48;100572.47;;;4.70;92.18
83363;BME280;73275;50.882;5.984;2023-12-20T08:07:13;100581.91;;;4.71;92.33
83363;BME280;73275;50.882;5.984;2023-12-20T08:09:39;100576.53;;;4.68;92.16
83363;BME280;73275;50.882;5.984;2023-12-20T08:12:05;100570.28;;;4.72;92.47
83363;BME280;73275;50.882;5.984;2023-12-20T08:14:30;100576.97;;;4.70;92.00
83363;BME280;73275;50.882;5.984;2023-12-20T08:17:01;100568.28;;;4.69;91.57
83363;BME280;73275;50.882;5.984;2023-12-20T08:19:27;100580.84;;;4.72;91.51
83363;BME280;73275;50.882;5.984;2023-12-20T08:21:52;100567.66;;;4.72;91.41
83363;BME280;73275;50.882;5.984;2023-12-20T08:24:18;100570.72;;;4.74;91.94
83363;BME280;73275;50.882;5.984;2023-12-20T08:26:43;100570.41;;;4.76;91.80
83363;BME280;73275;50.882;5.984;2023-12-20T08:29:13;100561.16;;;4.82;91.36
83363;BME280;73275;50.882;5.984;2023-12-20T08:31:38;100567.97;;;4.83;90.52
83363;BME280;73275;50.882;5.984;2023-12-20T08:34:06;100577.31;;;4.80;90.48
83363;BME280;73275;50.882;5.984;2023-12-20T08:36:31;100576.00;;;4.86;90.40
83363;BME280;73275;50.882;5.984;2023-12-20T08:38:59;100581.97;;;4.83;90.99
83363;BME280;73275;50.882;5.984;2023-12-20T08:41:25;100595.59;;;4.85;90.84
83363;BME280;73275;50.882;5.984;2023-12-20T08:43:54;100585.34;;;4.84;91.17
83363;BME280;73275;50.882;5.984;2023-12-20T08:46:19;100600.34;;;4.92;90.48
83363;BME280;73275;50.882;5.984;2023-12-20T08:48:46;100600.56;;;4.99;90.50
83363;BME280;73275;50.882;5.984;2023-12-20T08:51:13;100613.13;;;5.02;90.06
83363;BME280;73275;50.882;5.984;2023-12-20T08:53:38;100608.28;;;5.04;89.58
83363;BME280;73275;50.882;5.984;2023-12-20T08:56:04;100618.84;;;5.04;89.37
83363;BME280;73275;50.882;5.984;2023-12-20T08:58:29;100608.84;;;5.09;88.88
83363;BME280;73275;50.882;5.984;2023-12-20T09:00:54;100606.97;;;5.10;89.30
83363;BME280;73275;50.882;5.984;2023-12-20T09:03:22;100591.13;;;5.10;89.44
83363;BME280;73275;50.882;5.984;2023-12-20T09:05:47;100603.13;;;5.07;89.33
83363;BME280;73275;50.882;5.984;2023-12-20T09:08:13;100587.94;;;5.04;89.02
83363;BME280;73275;50.882;5.984;2023-12-20T09:10:40;100589.16;;;5.07;89.15
83363;BME280;73275;50.882;5.984;2023-12-20T09:13:08;100586.94;;;5.09;89.02
83363;BME280;73275;50.882;5.984;2023-12-20T09:15:34;100598.84;;;5.15;89.07
83363;BME280;73275;50.882;5.984;2023-12-20T09:18:04;100577.72;;;5.15;89.22
83363;BME280;73275;50.882;5.984;2023-12-20T09:20:30;100587.28;;;5.19;88.33
83363;BME280;73275;50.882;5.984;2023-12-20T09:22:56;100579.13;;;5.12;89.25
83363;BME280;73275;50.882;5.984;2023-12-20T09:25:21;100575.16;;;5.06;88.77
83363;BME280;73275;50.882;5.984;2023-12-20T09:31:13;100548.22;;;5.13;89.20
83363;BME280;73275;50.882;5.984;2023-12-20T09:33:41;100557.91;;;5.21;88.49
83363;BME280;73275;50.882;5.984;2023-12-20T09:36:09;100564.41;;;5.23;88.53
83363;BME280;73275;50.882;5.984;2023-12-20T09:38:44;100556.03;;;5.21;88.56
83363;BME280;73275;50.882;5.984;2023-12-20T09:41:13;100561.53;;;5.28;88.71
83363;BME280;73275;50.882;5.984;2023-12-20T09:43:39;100588.06;;;5.32;88.69
83363;BME280;73275;50.882;5.984;2023-12-20T09:46:11;100572.09;;;5.40;88.44
83363;BME280;73275;50.882;5.984;2023-12-20T09:48:41;100585.75;;;5.42;88.16
83363;BME280;73275;50.882;5.984;2023-12-20T09:51:06;100576.53;;;5.36;87.66
83363;BME280;73275;50.882;5.984;2023-12-20T09:53:35;100578.16;;;5.41;88.12
83363;BME280;73275;50.882;5.984;2023-12-20T09:56:02;100577.72;;;5.39;87.38
83363;BME280;73275;50.882;5.984;2023-12-20T09:58:35;100568.25;;;5.38;88.06
83363;BME280;73275;50.882;5.984;2023-12-20T10:01:12;100571.44;;;5.43;88.11
83363;BME280;73275;50.882;5.984;2023-12-20T10:03:39;100578.47;;;5.39;87.65
83363;BME280;73275;50.882;5.984;2023-12-20T10:06:15;100560.09;;;5.55;86.99
83363;BME280;73275;50.882;5.984;2023-12-20T10:08:45;100585.09;;;5.57;87.20
83363;BME280;73275;50.882;5.984;2023-12-20T10:11:13;100578.38;;;5.48;86.95
83363;BME280;73275;50.882;5.984;2023-12-20T10:13:47;100571.09;;;5.57;87.23
83363;BME280;73275;50.882;5.984;2023-12-20T10:16:13;100564.69;;;5.70;86.19
83363;BME280;73275;50.882;5.984;2023-12-20T10:18:42;100554.66;;;5.87;85.00
83363;BME280;73275;50.882;5.984;2023-12-20T10:21:08;100561.50;;;5.76;86.32
83363;BME280;73275;50.882;5.984;2023-12-20T10:23:39;100555.31;;;5.72;86.61
83363;BME280;73275;50.882;5.984;2023-12-20T10:26:08;100553.50;;;5.61;86.39
83363;BME280;73275;50.882;5.984;2023-12-20T10:28:37;100532.34;;;5.61;86.62
83363;BME280;73275;50.882;5.984;2023-12-20T10:31:08;100539.69;;;5.67;86.23
83363;BME280;73275;50.882;5.984;2023-12-20T10:33:34;100542.34;;;5.67;86.66
83363;BME280;73275;50.882;5.984;2023-12-20T10:36:00;100532.00;;;5.62;86.43
83363;BME280;73275;50.882;5.984;2023-12-20T10:38:25;100540.38;;;5.64;86.63
83363;BME280;73275;50.882;5.984;2023-12-20T10:41:14;100522.75;;;5.68;85.96
83363;BME280;73275;50.882;5.984;2023-12-20T10:43:45;100527.13;;;5.76;86.16
83363;BME280;73275;50.882;5.984;2023-12-20T10:46:20;100516.44;;;5.73;86.38
83363;BME280;73275;50.882;5.984;2023-12-20T10:48:46;100537.28;;;5.74;86.50
83363;BME280;73275;50.882;5.984;2023-12-20T10:51:14;100531.75;;;5.79;86.29
83363;BME280;73275;50.882;5.984;2023-12-20T10:53:43;100523.50;;;5.81;86.36
83363;BME280;73275;50.882;5.984;2023-12-20T10:56:12;100541.13;;;5.77;86.80
83363;BME280;73275;50.882;5.984;2023-12-20T10:58:41;100547.16;;;5.77;86.24
83363;BME280;73275;50.882;5.984;2023-12-20T11:01:08;100542.78;;;5.81;86.43
83363;BME280;73275;50.882;5.984;2023-12-20T11:03:35;100557.13;;;5.80;86.24
83363;BME280;73275;50.882;5.984;2023-12-20T11:06:12;100555.44;;;5.76;86.94
83363;BME280;73275;50.882;5.984;2023-12-20T11:08:53;100554.16;;;5.82;85.83
83363;BME280;73275;50.882;5.984;2023-12-20T11:11:30;100548.25;;;5.88;85.78
83363;BME280;73275;50.882;5.984;2023-12-20T11:14:08;100535.81;;;5.89;86.24
83363;BME280;73275;50.882;5.984;2023-12-20T11:16:38;100531.31;;;5.89;85.81
83363;BME280;73275;50.882;5.984;2023-12-20T11:19:07;100519.63;;;5.90;86.05
83363;BME280;73275;50.882;5.984;2023-12-20T11:21:33;100518.28;;;5.96;86.20
83363;BME280;73275;50.882;5.984;2023-12-20T11:24:02;100513.88;;;6.00;84.89
83363;BME280;73275;50.882;5.984;2023-12-20T11:26:29;100509.16;;;5.94;85.80
83363;BME280;73275;50.882;5.984;2023-12-20T11:32:03;100510.78;;;5.98;85.57
83363;BME280;73275;50.882;5.984;2023-12-20T11:34:32;100504.75;;;5.98;85.99
83363;BME280;73275;50.882;5.984;2023-12-20T11:37:31;100491.94;;;6.00;85.60
83363;BME280;73275;50.882;5.984;2023-12-20T11:40:02;100501.50;;;6.04;85.77
83363;BME280;73275;50.882;5.984;2023-12-20T11:42:27;100511.09;;;6.09;85.46
83363;BME280;73275;50.882;5.984;2023-12-20T11:44:53;100515.59;;;6.08;85.47
83363;BME280;73275;50.882;5.984;2023-12-20T11:47:19;100516.00;;;6.10;85.97
83363;BME280;73275;50.882;5.984;2023-12-20T11:49:47;100510.72;;;6.10;85.75
83363;BME280;73275;50.882;5.984;2023-12-20T11:52:16;100511.41;;;6.07;85.53
83363;BME280;73275;50.882;5.984;2023-12-20T11:54:41;100504.34;;;6.11;85.73
83363;BME280;73275;50.882;5.984;2023-12-20T11:57:07;100503.91;;;6.09;85.76
83363;BME280;73275;50.882;5.984;2023-12-20T11:59:32;100504.34;;;6.11;86.05
83363;BME280;73275;50.882;5.984;2023-12-20T12:01:58;100504.09;;;6.16;85.57
83363;BME280;73275;50.882;5.984;2023-12-20T12:04:26;100490.75;;;6.13;85.89
83363;BME280;73275;50.882;5.984;2023-12-20T12:06:52;100467.31;;;6.11;86.53
83363;BME280;73275;50.882;5.984;2023-12-20T12:09:19;100476.47;;;6.14;86.27
83363;BME280;73275;50.882;5.984;2023-12-20T12:11:47;100468.84;;;6.12;86.22
83363;BME280;73275;50.882;5.984;2023-12-20T12:20:26;100446.66;;;6.17;86.62
83363;BME280;73275;50.882;5.984;2023-12-20T12:22:59;100464.94;;;6.22;86.08
83363;BME280;73275;50.882;5.984;2023-12-20T12:25:25;100462.28;;;6.22;86.16
83363;BME280;73275;50.882;5.984;2023-12-20T12:27:51;100458.53;;;6.23;86.32
83363;BME280;73275;50.882;5.984;2023-12-20T12:30:17;100464.94;;;6.22;86.83
83363;BME280;73275;50.882;5.984;2023-12-20T12:32:47;100471.69;;;6.19;87.92
83363;BME280;73275;50.882;5.984;2023-12-20T12:35:17;100467.06;;;6.16;87.63
83363;BME280;73275;50.882;5.984;2023-12-20T12:38:00;100472.00;;;6.18;88.58
83363;BME280;73275;50.882;5.984;2023-12-20T12:40:34;100451.53;;;6.15;88.62
83363;BME280;73275;50.882;5.984;2023-12-20T12:43:00;100434.13;;;6.14;89.76
83363;BME280;73275;50.882;5.984;2023-12-20T12:45:43;100447.28;;;6.26;89.68
83363;BME280;73275;50.882;5.984;2023-12-20T12:49:07;100429.78;;;6.21;89.72
83363;BME280;73275;50.882;5.984;2023-12-20T12:51:43;100448.72;;;6.23;89.44
83363;BME280;73275;50.882;5.984;2023-12-20T12:54:21;100437.44;;;6.26;89.14
83363;BME280;73275;50.882;5.984;2023-12-20T12:56:50;100435.91;;;6.25;89.35
83363;BME280;73275;50.882;5.984;2023-12-20T12:59:20;100447.03;;;6.31;88.66
83363;BME280;73275;50.882;5.984;2023-12-20T13:01:57;100439.69;;;6.24;89.16
83363;BME280;73275;50.882;5.984;2023-12-20T13:04:44;100436.53;;;6.19;89.44
83363;BME280;73275;50.882;5.984;2023-12-20T13:07:12;100444.63;;;6.26;89.39
83363;BME280;73275;50.882;5.984;2023-12-20T13:09:39;100441.66;;;6.27;88.95
83363;BME280;73275;50.882;5.984;2023-12-20T13:12:28;100424.91;;;6.23;89.03
83363;BME280;73275;50.882;5.984;2023-12-20T13:15:10;100426.03;;;6.22;89.54
83363;BME280;73275;50.882;5.984;2023-12-20T13:17:41;100426.88;;;6.26;90.04
83363;BME280;73275;50.882;5.984;2023-12-20T13:20:07;100416.19;;;6.23;91.02
83363;BME280;73275;50.882;5.984;2023-12-20T13:26:20;100414.84;;;6.29;89.97
83363;BME280;73275;50.882;5.984;2023-12-20T13:29:02;100395.91;;;6.27;89.90
83363;BME280;73275;50.882;5.984;2023-12-20T13:32:14;100394.53;;;6.33;89.99
83363;BME280;73275;50.882;5.984;2023-12-20T13:34:53;100389.78;;;6.38;89.28
83363;BME280;73275;50.882;5.984;2023-12-20T13:37:23;100379.25;;;6.42;89.55
83363;BME280;73275;50.882;5.984;2023-12-20T13:43:07;100363.88;;;6.47;90.23
83363;BME280;73275;50.882;5.984;2023-12-20T13:45:46;100371.16;;;6.50;89.70
83363;BME280;73275;50.882;5.984;2023-12-20T13:48:25;100364.25;;;6.46;89.97
83363;BME280;73275;50.882;5.984;2023-12-20T13:51:17;100361.69;;;6.49;89.86